Time;durP1;ratioP1;P1;durP2;ratioP2;P2;SDS_P1;SDS_P2;PMS_P1;PMS_P2;Temp;Humidity;BMP_temperature;BMP_pressure;BME280_temperature;BME280_humidity;BME280_pressure;Samples;Min_cycle;Max_cycle;Signal;HPM_P1;HPM_P2
2022/06/23 00:00:15;;;;;;;11.43;5.03;;;;;;;19.98;61.17;101101.22;5075807;28;20407;-49
2022/06/23 00:03:04;;;;;;;10.10;4.38;;;;;;;19.93;62.08;101087.53;5061227;28;20041;-50
2022/06/23 00:05:56;;;;;;;12.70;5.05;;;;;;;19.90;62.28;101081.88;5061696;28;20048;-49
2022/06/23 00:08:46;;;;;;;13.77;5.30;;;;;;;19.83;63.21;101076.00;5062926;28;20047;-49
2022/06/23 00:11:34;;;;;;;9.55;4.70;;;;;;;19.68;63.93;101086.41;5076138;28;20040;-52
2022/06/23 00:14:23;;;;;;;15.63;5.40;;;;;;;19.54;65.10;101080.97;5059166;28;20419;-49
2022/06/23 00:17:24;;;;;;;11.77;4.82;;;;;;;19.61;65.09;101074.16;5072664;28;20036;-47
2022/06/23 00:20:26;;;;;;;9.95;4.85;;;;;;;19.51;66.04;101067.81;5075809;28;20041;-50
2022/06/23 00:23:41;;;;;;;10.75;4.80;;;;;;;19.48;66.62;101065.69;5059796;28;20039;-50
2022/06/23 00:26:32;;;;;;;10.73;4.75;;;;;;;19.54;66.50;101078.22;5066315;28;20055;-50
2022/06/23 00:29:22;;;;;;;14.52;5.13;;;;;;;19.59;66.89;101078.03;5057840;28;20048;-48
2022/06/23 00:32:11;;;;;;;17.85;5.55;;;;;;;19.52;67.36;101077.72;5065602;28;20517;-49
2022/06/23 00:35:00;;;;;;;12.20;5.05;;;;;;;19.47;68.02;101069.56;5060691;28;20044;-50
2022/06/23 00:37:50;;;;;;;10.35;4.97;;;;;;;19.53;67.74;101068.31;5062717;28;20052;-52
2022/06/23 00:40:42;;;;;;;11.20;4.53;;;;;;;19.51;68.39;101064.22;5066090;28;20041;-49
2022/06/23 00:43:11;;;;;;;15.77;5.45;;;;;;;19.45;68.60;101066.31;5070854;28;20487;-49
2022/06/23 00:46:19;;;;;;;13.38;4.60;;;;;;;19.45;68.66;101071.03;5067699;28;20387;-50
2022/06/23 00:49:15;;;;;;;15.40;5.88;;;;;;;19.52;68.73;101066.66;5072772;28;20131;-50
2022/06/23 00:52:10;;;;;;;;;;;;;;;19.63;67.75;101067.19;5065788;28;20529;-48
2022/06/23 00:55:02;;;;;;;15.15;4.93;;;;;;;19.71;68.10;101073.88;5047405;28;19920;-50
2022/06/23 00:57:54;;;;;;;15.15;5.68;;;;;;;19.70;68.11;101067.53;5071847;28;20050;-46
2022/06/23 01:00:42;;;;;;;13.10;5.60;;;;;;;19.56;69.13;101075.13;5060415;28;20040;-50
2022/06/23 01:03:36;;;;;;;14.20;5.28;;;;;;;19.50;69.29;101073.66;5056709;28;20059;-47
2022/06/23 01:06:16;;;;;;;12.83;5.57;;;;;;;19.47;69.58;101064.06;5057579;28;20047;-46
2022/06/23 01:09:19;;;;;;;12.90;5.35;;;;;;;19.40;69.85;101063.72;5060022;28;20056;-50
2022/06/23 01:12:35;;;;;;;12.18;5.35;;;;;;;19.35;70.16;101059.16;5076434;28;20048;-46
2022/06/23 01:15:29;;;;;;;15.55;5.85;;;;;;;19.31;70.57;101055.41;5065704;28;20423;-49
2022/06/23 01:18:21;;;;;;;10.32;5.43;;;;;;;19.23;70.97;101061.72;5071564;28;20063;-47
2022/06/23 01:21:48;;;;;;;13.73;5.82;;;;;;;19.28;70.65;101058.81;5071235;28;20045;-48
2022/06/23 01:24:48;;;;;;;13.50;5.72;;;;;;;19.32;70.70;101054.28;5058321;28;20037;-49
2022/06/23 01:27:54;;;;;;;10.00;5.38;;;;;;;19.27;70.60;101050.84;5073742;28;20036;-49
2022/06/23 01:31:02;;;;;;;10.35;4.90;;;;;;;19.22;70.79;101040.75;5063757;28;20064;-49
2022/06/23 01:34:09;;;;;;;19.65;6.38;;;;;;;19.13;70.70;101037.97;5047398;28;20044;-51
2022/06/23 01:37:21;;;;;;;13.15;5.55;;;;;;;19.11;71.02;101042.19;5058695;28;20056;-48
2022/06/23 01:40:23;;;;;;;12.85;5.72;;;;;;;19.12;70.73;101041.03;5064185;28;20048;-45
2022/06/23 01:43:17;;;;;;;11.35;5.35;;;;;;;19.07;70.49;101044.78;5094129;28;20093;-49
2022/06/23 01:46:16;;;;;;;13.65;5.97;;;;;;;18.94;70.98;101045.69;5059435;28;20052;-49
2022/06/23 01:49:10;;;;;;;12.43;5.70;;;;;;;18.97;70.82;101044.25;5040669;28;20412;-49
2022/06/23 01:52:18;;;;;;;12.48;5.75;;;;;;;18.85;70.84;101050.38;5067315;28;20172;-50
2022/06/23 01:55:22;;;;;;;12.25;5.43;;;;;;;18.87;70.79;101048.91;5044049;28;20419;-52
2022/06/23 01:58:11;;;;;;;13.75;5.50;;;;;;;18.91;70.07;101043.59;5055527;28;20048;-52
2022/06/23 02:01:01;;;;;;;12.48;6.28;;;;;;;18.86;69.95;101040.97;5064462;28;20052;-50
2022/06/23 02:03:56;;;;;;;10.65;5.70;;;;;;;18.84;69.83;101037.72;5057261;28;20067;-50
2022/06/23 02:06:57;;;;;;;11.80;5.43;;;;;;;18.82;69.82;101042.72;5058767;28;20053;-47
2022/06/23 02:09:54;;;;;;;12.73;5.47;;;;;;;18.88;69.30;101046.97;5063689;28;20052;-48
2022/06/23 02:12:44;;;;;;;10.18;5.32;;;;;;;18.98;68.36;101043.94;5069627;28;20051;-51
2022/06/23 02:15:47;;;;;;;9.52;5.03;;;;;;;18.99;68.11;101048.31;5052768;28;20048;-53
2022/06/23 02:18:45;;;;;;;12.57;5.90;;;;;;;18.98;67.93;101046.69;5074810;28;20048;-50
2022/06/23 02:21:36;;;;;;;13.07;5.03;;;;;;;18.96;67.85;101048.97;5070082;28;20044;-51
2022/06/23 02:25:03;;;;;;;11.85;4.68;;;;;;;18.95;67.57;101044.56;5060689;28;20049;-52
2022/06/23 02:28:18;;;;;;;13.40;5.20;;;;;;;19.02;66.98;101052.38;5056284;28;20048;-46
2022/06/23 02:31:30;;;;;;;12.00;5.78;;;;;;;18.88;67.42;101049.72;5056593;28;20492;-53
2022/06/23 02:34:29;;;;;;;11.13;5.50;;;;;;;18.81;67.39;101046.59;5069901;28;20057;-49
2022/06/23 02:37:54;;;;;;;11.73;5.47;;;;;;;18.76;67.66;101038.44;5052983;28;20049;-45
2022/06/23 02:40:43;;;;;;;11.18;5.25;;;;;;;18.79;67.39;101049.72;5073087;28;20044;-46
2022/06/23 02:43:33;;;;;;;12.93;5.53;;;;;;;18.80;67.11;101053.28;5071023;28;20056;-47
2022/06/23 02:46:54;;;;;;;15.57;6.35;;;;;;;18.77;66.98;101040.94;5069853;28;20465;-49
2022/06/23 02:50:03;;;;;;;11.90;5.47;;;;;;;18.68;67.19;101035.31;5057607;28;20037;-48
2022/06/23 02:53:29;;;;;;;11.40;5.30;;;;;;;18.71;67.25;101028.34;5071624;28;20553;-46
2022/06/23 02:56:35;;;;;;;11.90;5.78;;;;;;;18.72;66.57;101033.56;5070147;28;20048;-48
2022/06/23 02:59:43;;;;;;;13.32;5.28;;;;;;;18.73;66.32;101029.66;5071242;28;20056;-48
2022/06/23 03:02:54;;;;;;;12.38;5.43;;;;;;;18.76;66.00;101027.41;5069841;28;20057;-48
2022/06/23 03:05:53;;;;;;;15.07;5.68;;;;;;;18.72;66.23;101022.53;5071051;28;20477;-48
2022/06/23 03:08:51;;;;;;;9.48;5.05;;;;;;;18.72;66.10;101022.53;5059688;28;20044;-48
2022/06/23 03:11:51;;;;;;;12.20;5.18;;;;;;;18.70;65.77;101023.97;5057308;28;20044;-48
2022/06/23 03:15:22;;;;;;;11.90;5.85;;;;;;;18.73;65.51;101023.34;5058156;28;20048;-49
2022/06/23 03:18:17;;;;;;;12.77;5.50;;;;;;;18.72;65.53;101016.19;5050442;28;20048;-49
2022/06/23 03:21:11;;;;;;;12.63;5.32;;;;;;;18.73;65.27;101010.34;5066539;28;20048;-50
2022/06/23 03:24:09;;;;;;;10.70;4.97;;;;;;;18.79;65.11;101013.81;5054089;28;20044;-48
2022/06/23 03:27:06;;;;;;;10.18;5.55;;;;;;;18.83;64.59;101017.59;5070252;28;20502;-47
2022/06/23 03:30:06;;;;;;;11.00;5.65;;;;;;;18.72;64.34;101013.44;5047430;28;20052;-46
2022/06/23 03:33:00;;;;;;;10.07;5.55;;;;;;;18.60;64.92;101011.28;5047742;28;20048;-47
2022/06/23 03:36:16;;;;;;;11.38;5.15;;;;;;;18.59;64.77;101006.91;5044546;28;20094;-48
2022/06/23 03:42:23;;;;;;;11.73;5.70;;;;;;;18.47;64.88;101009.41;5072258;28;20049;-48
2022/06/23 03:45:35;;;;;;;10.68;5.65;;;;;;;18.46;64.93;101007.78;5067504;28;20048;-50
2022/06/23 03:49:01;;;;;;;11.35;5.63;;;;;;;18.45;64.90;101006.19;5053803;28;20041;-48
2022/06/23 03:51:55;;;;;;;9.60;5.20;;;;;;;18.44;64.98;101010.84;5045589;28;20056;-50
2022/06/23 03:54:51;;;;;;;11.95;5.30;;;;;;;18.49;64.62;101005.19;5069698;28;20395;-50
2022/06/23 03:57:42;;;;;;;;;;;;;;;18.45;64.40;101006.19;5047571;28;20048;-49
2022/06/23 04:00:37;;;;;;;13.80;5.10;;;;;;;18.48;64.35;101011.06;5060974;28;19929;-49
2022/06/23 04:03:47;;;;;;;8.68;4.60;;;;;;;18.57;64.00;101008.31;5055728;28;20122;-48
2022/06/23 04:06:42;;;;;;;10.40;5.50;;;;;;;18.52;63.64;101015.63;5060831;28;20048;-48
2022/06/23 04:09:32;;;;;;;12.03;5.43;;;;;;;18.51;63.86;101022.25;5072468;28;20122;-50
2022/06/23 04:12:20;;;;;;;11.27;4.72;;;;;;;18.50;63.60;101015.13;5068836;28;20053;-49
2022/06/23 04:15:11;;;;;;;10.43;4.60;;;;;;;18.54;63.54;101023.56;5070307;28;20048;-51
2022/06/23 04:18:04;;;;;;;10.35;4.25;;;;;;;18.62;62.98;101013.72;5058684;28;20053;-49
2022/06/23 04:21:02;;;;;;;11.57;5.15;;;;;;;18.51;62.95;101013.97;5044281;28;20045;-49
2022/06/23 04:23:55;;;;;;;10.82;4.95;;;;;;;18.42;63.39;101009.53;5071900;28;20646;-49
2022/06/23 04:26:44;;;;;;;11.07;4.18;;;;;;;18.41;63.42;101013.44;5059774;28;20037;-50
2022/06/23 04:29:37;;;;;;;11.02;4.28;;;;;;;18.45;63.13;101026.28;5068292;28;20040;-50
2022/06/23 04:32:31;;;;;;;15.18;5.40;;;;;;;18.49;63.02;101012.66;5075194;28;20044;-48
2022/06/23 04:35:27;;;;;;;13.63;4.80;;;;;;;18.54;62.83;101020.81;5072103;28;20587;-47
2022/06/23 04:38:31;;;;;;;11.38;4.72;;;;;;;18.58;62.54;101027.31;5055773;28;20044;-50
2022/06/23 04:41:27;;;;;;;9.43;4.53;;;;;;;18.58;62.57;101019.03;5045324;28;20517;-51
2022/06/23 04:44:24;;;;;;;11.77;4.82;;;;;;;18.55;62.55;101022.44;5072303;28;20053;-49
2022/06/23 04:47:19;;;;;;;8.27;3.72;;;;;;;18.53;62.77;101024.72;5057645;28;20049;-51
2022/06/23 04:50:15;;;;;;;11.07;5.60;;;;;;;18.51;62.72;101021.44;5060373;28;20052;-51
2022/06/23 04:53:03;;;;;;;9.85;4.07;;;;;;;18.52;62.83;101023.91;5056219;28;21474;-51
2022/06/23 04:56:18;;;;;;;9.48;4.07;;;;;;;18.59;62.24;101012.41;5067294;28;20048;-48
2022/06/23 04:59:26;;;;;;;;;;;;;;;18.66;62.46;101023.78;5070377;28;20040;-54
2022/06/23 05:02:20;;;;;;;7.13;3.88;;;;;;;18.71;61.96;101018.16;5073271;28;19920;-53
2022/06/23 05:05:14;;;;;;;8.98;4.07;;;;;;;18.79;61.70;101015.78;5064598;28;20064;-55
2022/06/23 05:08:15;;;;;;;9.95;4.28;;;;;;;18.86;61.57;101021.66;5061630;28;20407;-52
2022/06/23 05:11:11;;;;;;;9.93;3.83;;;;;;;18.89;61.32;101019.03;5070597;28;20052;-53
2022/06/23 05:14:06;;;;;;;9.70;4.43;;;;;;;18.93;61.11;101022.81;5063629;28;20040;-52
2022/06/23 05:17:20;;;;;;;8.88;4.60;;;;;;;18.94;61.04;101023.63;5063420;28;20549;-53
2022/06/23 05:20:16;;;;;;;9.18;4.13;;;;;;;18.98;61.27;101027.38;5071525;28;20429;-51
2022/06/23 05:23:04;;;;;;;;;;;;;;;19.00;60.94;101016.81;5069738;28;20467;-52
2022/06/23 05:25:53;;;;;;;9.20;3.83;;;;;;;19.02;61.10;101022.81;5055669;28;19927;-49
2022/06/23 05:28:42;;;;;;;9.63;4.50;;;;;;;19.04;60.82;101019.75;5070272;28;20059;-51
2022/06/23 05:31:33;;;;;;;8.88;4.20;;;;;;;19.03;60.87;101021.69;5073452;28;20051;-50
2022/06/23 05:34:24;;;;;;;9.55;4.50;;;;;;;19.06;60.74;101023.81;5060369;28;20053;-48
2022/06/23 05:37:29;;;;;;;10.63;4.20;;;;;;;19.08;60.66;101013.25;5066579;28;20471;-52
2022/06/23 05:40:38;;;;;;;10.60;4.10;;;;;;;19.06;60.75;101021.06;5058535;28;20048;-51
2022/06/23 05:43:26;;;;;;;9.77;4.60;;;;;;;19.10;61.12;101021.25;5070610;28;20449;-52
2022/06/23 05:46:22;;;;;;;12.27;4.15;;;;;;;19.18;60.68;101022.38;5058437;28;20439;-55
2022/06/23 05:49:25;;;;;;;12.23;4.90;;;;;;;19.21;60.12;101018.97;5057883;28;20079;-55
2022/06/23 05:52:18;;;;;;;9.63;4.60;;;;;;;19.21;60.19;101013.44;5071010;28;20044;-55
2022/06/23 05:55:51;;;;;;;13.65;4.60;;;;;;;19.24;60.29;101016.41;5048764;28;20051;-55
2022/06/23 05:58:49;;;;;;;12.35;4.80;;;;;;;19.32;60.52;101028.59;4989904;28;20065;-53
2022/06/23 06:01:48;;;;;;;13.80;5.80;;;;;;;19.35;59.90;101011.38;4976403;28;20158;-55
2022/06/23 06:04:51;;;;;;;23.27;5.47;;;;;;;19.37;60.02;101009.09;4357030;28;10000061;-56
2022/06/23 06:07:41;;;;;;;10.02;4.38;;;;;;;19.43;59.86;101009.75;5049806;28;20056;-52
2022/06/23 06:10:30;;;;;;;8.45;4.13;;;;;;;19.46;60.10;101023.75;5048076;28;20044;-51
2022/06/23 06:13:23;;;;;;;9.40;3.80;;;;;;;19.51;60.09;101020.81;5067443;28;20644;-55
2022/06/23 06:16:11;;;;;;;10.63;4.40;;;;;;;19.59;60.36;101024.72;5061502;28;20041;-53
2022/06/23 06:18:59;;;;;;;17.02;5.47;;;;;;;19.63;60.35;101022.13;5066682;28;20055;-53
2022/06/23 06:21:54;;;;;;;9.93;4.80;;;;;;;19.68;60.43;101010.94;5070446;28;20449;-55
2022/06/23 06:24:49;;;;;;;10.00;4.45;;;;;;;19.72;60.27;101015.50;5061833;28;20037;-49
2022/06/23 06:27:37;;;;;;;12.75;4.85;;;;;;;19.79;59.91;101010.31;5053971;28;20052;-56
2022/06/23 06:30:32;;;;;;;13.80;5.07;;;;;;;19.83;60.18;101012.41;5053231;28;20059;-54
2022/06/23 06:33:45;;;;;;;11.48;5.53;;;;;;;20.00;59.59;101015.97;5049393;28;20048;-54
2022/06/23 06:36:34;;;;;;;9.07;4.20;;;;;;;20.08;59.45;101010.75;5027439;28;20095;-54
2022/06/23 06:39:26;;;;;;;11.38;5.05;;;;;;;20.10;59.88;101016.75;5062197;28;20135;-55
2022/06/23 06:42:15;;;;;;;10.43;5.03;;;;;;;20.06;59.88;101018.56;5050635;28;20445;-55
2022/06/23 06:45:07;;;;;;;13.23;5.07;;;;;;;20.04;60.37;101021.66;5063360;28;20051;-53
2022/06/23 06:47:55;;;;;;;7.45;4.53;;;;;;;20.06;60.07;101013.00;5063198;28;20044;-56
2022/06/23 06:50:46;;;;;;;12.73;4.80;;;;;;;20.06;60.25;101008.31;5068364;28;20071;-51
2022/06/23 06:53:43;;;;;;;13.80;5.85;;;;;;;20.08;60.92;101014.31;5062670;28;20077;-51
2022/06/23 06:56:56;;;;;;;9.63;4.72;;;;;;;20.11;60.92;101015.63;5065843;28;20075;-51
2022/06/23 07:00:01;;;;;;;8.48;4.22;;;;;;;20.16;60.58;101012.69;5036933;28;20044;-54
2022/06/23 07:02:59;;;;;;;10.98;5.00;;;;;;;20.22;60.20;101014.13;5065108;28;20084;-52
2022/06/23 07:06:10;;;;;;;9.88;4.75;;;;;;;20.28;60.02;101020.31;5059361;28;20057;-50
2022/06/23 07:09:06;;;;;;;11.45;4.78;;;;;;;20.34;60.49;101022.56;5053435;28;20048;-51
2022/06/23 07:12:14;;;;;;;12.20;4.80;;;;;;;20.37;60.30;101019.16;5062977;28;20474;-47
2022/06/23 07:15:17;;;;;;;10.70;5.20;;;;;;;20.38;60.40;101019.97;5060997;28;20048;-53
2022/06/23 07:18:13;;;;;;;11.63;5.13;;;;;;;20.40;60.42;101024.03;5068703;28;20516;-50
2022/06/23 07:21:07;;;;;;;10.38;5.63;;;;;;;20.43;60.31;101034.44;5063125;28;20049;-50
2022/06/23 07:23:56;;;;;;;8.48;4.25;;;;;;;20.43;60.21;101028.09;5062381;28;20055;-50
2022/06/23 07:26:51;;;;;;;12.20;5.95;;;;;;;20.45;61.15;101022.25;5050287;28;20048;-47
2022/06/23 07:30:04;;;;;;;13.38;6.32;;;;;;;20.47;60.64;101023.53;5061439;28;20075;-51
2022/06/23 07:33:14;;;;;;;12.90;7.05;;;;;;;20.53;62.12;101026.94;5063978;28;20046;-52
2022/06/23 07:36:12;;;;;;;12.65;6.25;;;;;;;20.61;62.25;101020.56;5063241;28;20075;-52
2022/06/23 07:39:05;;;;;;;14.40;6.30;;;;;;;20.67;62.20;101021.22;5055878;28;20045;-53
2022/06/23 07:42:32;;;;;;;15.20;6.43;;;;;;;20.70;62.50;101018.56;5060867;28;20045;-50
2022/06/23 07:45:45;;;;;;;15.20;7.00;;;;;;;20.78;62.61;101026.06;5066265;28;20056;-54
2022/06/23 07:48:35;;;;;;;13.70;6.95;;;;;;;20.89;62.54;101034.00;5070414;28;20041;-52
2022/06/23 07:51:23;;;;;;;13.88;7.13;;;;;;;20.95;62.41;101032.63;5066939;28;20059;-51
2022/06/23 07:54:17;;;;;;;15.98;7.10;;;;;;;20.93;62.48;101021.91;5057690;28;20049;-50
2022/06/23 07:57:05;;;;;;;16.58;7.20;;;;;;;20.97;63.04;101019.28;5072407;28;20051;-50
2022/06/23 08:00:06;;;;;;;16.80;8.57;;;;;;;21.02;62.56;101010.75;5072436;28;20487;-51
2022/06/23 08:03:04;;;;;;;16.52;8.40;;;;;;;21.03;63.04;101010.44;5060467;28;20052;-49
2022/06/23 08:05:58;;;;;;;16.98;7.15;;;;;;;21.05;63.26;101015.66;5070431;28;20418;-51
2022/06/23 08:08:46;;;;;;;15.75;8.13;;;;;;;21.13;64.34;101000.94;5066802;28;20044;-50
2022/06/23 08:18:50;;;;;;;16.13;7.72;;;;;;;21.38;63.88;101001.09;5066112;28;20061;-51
2022/06/23 08:21:44;;;;;;;20.20;8.93;;;;;;;21.39;63.70;100999.97;5073208;28;20445;-52
2022/06/23 08:24:32;;;;;;;16.60;7.72;;;;;;;21.39;63.93;101002.72;5070974;28;20051;-56
2022/06/23 08:27:24;;;;;;;21.05;8.38;;;;;;;21.42;63.48;100993.75;5075129;28;20102;-48
2022/06/23 08:30:15;;;;;;;16.02;7.75;;;;;;;21.48;64.03;101000.75;5063453;28;20506;-49
2022/06/23 08:33:03;;;;;;;15.45;7.47;;;;;;;21.51;64.09;101000.06;5039177;28;20045;-49
2022/06/23 08:35:52;;;;;;;16.13;8.05;;;;;;;21.57;65.73;100998.69;5072565;28;20037;-49
2022/06/23 08:38:51;;;;;;;15.15;7.75;;;;;;;21.62;65.12;100995.75;5060028;28;20045;-49
2022/06/23 08:42:00;;;;;;;23.38;8.50;;;;;;;21.66;65.81;100993.91;5066792;28;20068;-49
2022/06/23 08:45:18;;;;;;;16.77;8.73;;;;;;;21.73;64.71;100995.31;5063178;28;20052;-49
2022/06/23 08:48:22;;;;;;;18.87;8.90;;;;;;;21.78;65.40;100995.13;5074080;28;20036;-49
2022/06/23 08:51:25;;;;;;;13.85;8.70;;;;;;;21.94;66.75;101000.84;5071204;28;20309;-50
2022/06/23 08:54:18;;;;;;;20.60;9.35;;;;;;;22.05;66.51;100997.28;5071778;28;20052;-49
2022/06/23 08:57:16;;;;;;;19.50;9.57;;;;;;;22.12;66.56;101000.31;5060005;28;20094;-49
2022/06/23 09:00:29;;;;;;;16.73;8.85;;;;;;;22.18;66.69;101000.94;5065333;28;20048;-50
2022/06/23 09:03:36;;;;;;;17.23;9.45;;;;;;;22.25;66.75;100995.66;5061212;28;20044;-49
2022/06/23 09:06:53;;;;;;;18.33;10.05;;;;;;;22.42;67.01;100986.31;5074623;28;20048;-50
2022/06/23 09:09:52;;;;;;;22.80;9.40;;;;;;;22.60;65.95;100994.44;5071331;28;20053;-53
2022/06/23 09:13:07;;;;;;;15.00;9.23;;;;;;;22.56;66.09;100985.97;5061668;28;20051;-51
2022/06/23 09:16:38;;;;;;;20.98;9.00;;;;;;;22.49;65.95;100983.78;5052235;28;20522;-49
2022/06/23 09:19:53;;;;;;;17.25;8.55;;;;;;;22.51;66.62;100973.16;5074128;28;20106;-51
2022/06/23 09:23:01;;;;;;;13.52;7.22;;;;;;;22.54;66.65;100971.66;5062885;28;20053;-47
2022/06/23 09:26:05;;;;;;;15.82;7.72;;;;;;;22.55;66.32;100970.47;5052597;28;20045;-51
2022/06/23 09:28:56;;;;;;;18.98;8.93;;;;;;;22.70;67.38;100969.78;5072824;28;20048;-52
2022/06/23 09:32:11;;;;;;;16.17;7.70;;;;;;;22.88;66.33;100967.59;5064070;28;20044;-53
2022/06/23 09:35:23;;;;;;;18.58;8.10;;;;;;;22.92;65.70;100965.75;5043334;28;20056;-50
2022/06/23 09:38:34;;;;;;;16.48;7.28;;;;;;;23.05;64.26;100965.75;5064797;28;20509;-51
2022/06/23 09:41:59;;;;;;;14.57;7.10;;;;;;;23.13;65.21;100957.28;5057164;28;20048;-50
2022/06/23 09:45:06;;;;;;;16.80;7.13;;;;;;;23.20;64.75;100967.81;5071763;28;20045;-51
2022/06/23 09:48:19;;;;;;;17.98;7.68;;;;;;;23.16;64.85;100964.94;5057336;28;20049;-50
2022/06/23 09:51:18;;;;;;;16.45;8.23;;;;;;;23.27;66.09;100956.91;5066303;28;20483;-53
2022/06/23 09:54:16;;;;;;;21.13;7.78;;;;;;;23.38;66.03;100960.84;5073368;28;20131;-51
2022/06/23 09:57:41;;;;;;;16.90;6.20;;;;;;;23.48;64.72;100953.97;5069932;28;20052;-50
2022/06/23 10:00:39;;;;;;;15.98;6.45;;;;;;;23.47;63.09;100948.75;5060700;28;20052;-53
2022/06/23 10:03:36;;;;;;;16.38;6.07;;;;;;;23.46;63.42;100936.81;5069148;28;20055;-51
2022/06/23 10:06:31;;;;;;;16.40;6.22;;;;;;;23.56;64.01;100947.44;5069562;28;20052;-54
2022/06/23 10:09:36;;;;;;;14.65;6.13;;;;;;;23.73;63.70;100940.78;5073457;28;20075;-52
2022/06/23 10:12:19;;;;;;;17.65;6.65;;;;;;;23.87;62.81;100945.16;5069640;28;20518;-52
2022/06/23 10:15:28;;;;;;;12.88;6.25;;;;;;;23.83;62.89;100941.44;5057063;28;20048;-53
2022/06/23 10:18:27;;;;;;;12.95;5.65;;;;;;;23.73;62.47;100940.78;5064426;28;20147;-56
2022/06/23 10:21:29;;;;;;;12.15;5.47;;;;;;;23.76;62.73;100931.75;4366980;28;10001446;-55
2022/06/23 10:24:24;;;;;;;13.85;5.10;;;;;;;23.86;62.43;100932.38;5064803;28;20057;-51
2022/06/23 10:27:39;;;;;;;11.25;4.70;;;;;;;23.90;61.84;100931.31;5043937;28;20049;-54
2022/06/23 10:30:53;;;;;;;15.65;4.78;;;;;;;24.05;61.81;100926.13;5067641;28;20411;-55
2022/06/23 10:33:50;;;;;;;12.90;4.68;;;;;;;24.15;61.59;100928.38;5064621;28;20388;-54
2022/06/23 10:37:02;;;;;;;10.60;4.07;;;;;;;24.21;60.53;100924.97;5065724;28;20411;-56
2022/06/23 10:40:01;;;;;;;12.60;4.30;;;;;;;24.28;60.58;100920.78;5057674;28;20053;-54
2022/06/23 10:43:18;;;;;;;15.55;5.43;;;;;;;24.33;60.31;100914.94;5069569;28;20457;-55
2022/06/23 10:46:11;;;;;;;16.15;4.32;;;;;;;24.52;59.98;100915.03;5055482;28;20065;-52
2022/06/23 10:49:07;;;;;;;14.30;4.20;;;;;;;24.63;59.71;100913.31;5064785;28;20045;-48
2022/06/23 10:52:27;;;;;;;13.32;4.22;;;;;;;24.62;59.38;100914.47;5058564;28;20048;-49
2022/06/23 10:55:27;;;;;;;12.35;4.15;;;;;;;24.65;59.75;100913.78;5067865;28;20060;-56
2022/06/23 10:58:18;;;;;;;14.02;4.40;;;;;;;24.61;59.56;100912.06;5061879;28;20056;-53
2022/06/23 11:01:15;;;;;;;21.48;4.95;;;;;;;24.64;59.94;100901.00;5061746;28;20056;-54
2022/06/23 11:04:24;;;;;;;13.93;4.07;;;;;;;24.66;58.68;100909.81;5068692;28;20060;-54
2022/06/23 11:08:00;;;;;;;13.80;4.00;;;;;;;24.69;57.26;100907.47;5065102;28;20037;-51
2022/06/23 11:11:48;;;;;;;15.18;5.20;;;;;;;24.72;58.04;100910.31;5009053;28;20052;-51
2022/06/23 11:14:38;;;;;;;14.35;4.95;;;;;;;24.86;59.08;100907.88;4981101;28;20057;-52
2022/06/23 11:17:34;;;;;;;12.52;5.18;;;;;;;24.91;58.10;100903.19;5065096;28;20053;-53
2022/06/23 11:20:33;;;;;;;;;;;;;;;24.80;50.53;100908.53;5068035;28;20419;-50
2022/06/23 11:23:27;;;;;;;16.92;5.40;;;;;;;24.75;57.75;100898.47;5068069;28;19944;-54
2022/06/23 11:26:19;;;;;;;17.55;5.38;;;;;;;24.81;58.45;100899.78;5067617;28;20053;-51
2022/06/23 11:29:12;;;;;;;13.77;4.40;;;;;;;24.87;57.78;100901.13;5068376;28;20123;-55
2022/06/23 11:32:35;;;;;;;14.07;4.18;;;;;;;25.17;58.00;100900.63;5064852;28;20525;-53
2022/06/23 11:35:29;;;;;;;15.15;5.13;;;;;;;25.35;58.94;100898.22;5072941;28;20048;-52
2022/06/23 11:38:09;;;;;;;16.58;5.20;;;;;;;25.46;58.31;100896.44;5067755;28;20128;-52
2022/06/23 11:41:21;;;;;;;14.15;5.38;;;;;;;25.50;58.34;100891.75;5070236;28;20057;-51
2022/06/23 11:44:38;;;;;;;19.40;5.13;;;;;;;25.35;56.98;100897.38;5062304;28;20546;-51
2022/06/23 11:47:43;;;;;;;12.55;5.18;;;;;;;25.28;58.38;100878.53;5039725;28;20056;-48
2022/06/23 11:50:51;;;;;;;16.55;5.10;;;;;;;25.31;58.03;100888.16;5049412;28;20056;-51
2022/06/23 11:53:57;;;;;;;19.67;5.75;;;;;;;25.28;56.75;100879.34;5057003;28;20395;-53
2022/06/23 11:57:05;;;;;;;14.95;5.65;;;;;;;25.05;56.26;100887.59;5072711;28;20052;-52
2022/06/23 12:00:06;;;;;;;19.85;5.97;;;;;;;25.06;56.71;100893.97;5070700;28;20451;-48
2022/06/23 12:03:29;;;;;;;15.32;5.35;;;;;;;25.23;59.31;100892.75;5061810;28;20067;-49
2022/06/23 12:06:41;;;;;;;16.90;6.00;;;;;;;25.39;59.29;100879.53;5075406;28;20467;-51
2022/06/23 12:10:07;;;;;;;18.88;5.80;;;;;;;25.57;59.21;100867.94;5064401;28;20041;-52
2022/06/23 12:12:59;;;;;;;16.77;5.35;;;;;;;25.60;58.57;100867.22;5072669;28;20052;-50
2022/06/23 12:15:49;;;;;;;23.02;6.07;;;;;;;25.72;57.87;100875.41;5060313;28;20060;-48
2022/06/23 12:18:51;;;;;;;14.07;5.18;;;;;;;25.84;56.00;100872.44;5061723;28;20055;-50
2022/06/23 12:21:58;;;;;;;11.80;5.65;;;;;;;25.75;53.99;100866.28;5056818;28;20437;-51
2022/06/23 12:25:08;;;;;;;17.35;5.13;;;;;;;25.88;54.86;100864.97;5074949;28;20044;-51
2022/06/23 12:28:23;;;;;;;19.98;4.88;;;;;;;26.02;54.42;100867.19;5071523;28;20510;-53
2022/06/23 12:31:17;;;;;;;14.25;4.47;;;;;;;26.02;53.63;100866.38;5068821;28;20044;-52
2022/06/23 12:34:21;;;;;;;11.80;4.65;;;;;;;25.98;53.36;100873.88;5075094;28;20502;-54
2022/06/23 12:37:13;;;;;;;13.50;4.50;;;;;;;26.17;52.20;100873.00;5073359;28;20442;-51
2022/06/23 12:40:04;;;;;;;13.77;4.40;;;;;;;26.30;51.88;100866.06;5041324;28;20056;-53
2022/06/23 12:42:57;;;;;;;15.95;4.80;;;;;;;26.29;52.16;100865.28;5061533;28;20060;-52
2022/06/23 12:46:10;;;;;;;15.57;4.65;;;;;;;26.26;53.31;100860.41;5071644;28;20094;-51
2022/06/23 12:49:06;;;;;;;13.35;4.25;;;;;;;26.24;52.95;100861.97;5057971;28;20052;-52
2022/06/23 12:52:19;;;;;;;12.52;4.50;;;;;;;26.17;53.78;100861.84;5046106;28;20049;-50
2022/06/23 12:55:24;;;;;;;12.13;4.28;;;;;;;26.22;52.73;100851.19;5063849;28;20044;-54
2022/06/23 12:58:28;;;;;;;13.85;4.88;;;;;;;26.23;51.42;100836.03;5052829;28;20045;-54
2022/06/23 13:01:40;;;;;;;17.35;4.80;;;;;;;26.15;48.79;100845.47;5055906;28;20040;-52
2022/06/23 13:04:53;;;;;;;18.25;4.25;;;;;;;26.39;50.30;100841.47;5073820;28;20058;-52
2022/06/23 13:07:58;;;;;;;18.80;4.68;;;;;;;26.58;50.01;100836.97;5059881;28;20037;-52
2022/06/23 13:10:59;;;;;;;14.73;5.13;;;;;;;26.36;49.78;100819.84;5057571;28;20605;-52
2022/06/23 13:13:54;;;;;;;12.15;4.88;;;;;;;26.33;49.74;100832.59;5062635;28;20495;-52
2022/06/23 13:16:49;;;;;;;15.25;4.80;;;;;;;26.43;50.84;100824.75;5059970;28;20040;-54
2022/06/23 13:19:53;;;;;;;13.57;4.65;;;;;;;26.50;50.80;100822.84;5053973;28;20071;-53
2022/06/23 13:23:02;;;;;;;11.77;4.65;;;;;;;26.56;50.59;100815.00;5050158;28;20415;-53
2022/06/23 13:25:35;;;;;;;14.98;5.20;;;;;;;26.51;51.47;100812.50;5056644;28;20476;-51
2022/06/23 13:28:30;;;;;;;15.05;4.70;;;;;;;26.51;51.21;100815.31;5068650;28;20057;-52
2022/06/23 13:31:26;;;;;;;13.90;5.28;;;;;;;26.52;51.03;100812.13;5067422;28;20049;-55
2022/06/23 13:34:15;;;;;;;;;;;;;;;26.62;51.19;100804.28;5047539;28;20048;-51
2022/06/23 13:37:18;;;;;;;11.27;4.35;;;;;;;26.82;50.62;100794.59;5056524;28;19927;-52
2022/06/23 13:40:22;;;;;;;13.77;4.63;;;;;;;26.82;50.77;100802.97;5057399;28;20045;-52
2022/06/23 13:43:14;;;;;;;17.83;5.32;;;;;;;26.83;50.36;100804.59;5052686;28;20094;-51
2022/06/23 13:46:15;;;;;;;12.10;4.38;;;;;;;26.74;50.38;100796.47;5055911;28;20117;-51
2022/06/23 13:49:41;;;;;;;19.35;4.55;;;;;;;26.73;50.54;100794.06;5058703;28;20560;-51
2022/06/23 13:52:34;;;;;;;10.98;4.20;;;;;;;26.90;49.34;100798.28;5060849;28;20045;-53
2022/06/23 13:55:21;;;;;;;11.68;4.35;;;;;;;27.00;49.36;100792.00;5059033;28;20163;-51
2022/06/23 13:58:34;;;;;;;12.35;4.20;;;;;;;26.99;49.59;100798.81;5071371;28;20056;-46
2022/06/23 14:01:46;;;;;;;21.45;5.07;;;;;;;27.00;49.35;100792.00;5071955;28;20055;-47